sensor_id;sensor_type;location;lat;lon;timestamp;P1;durP1;ratioP1;P2;durP2;ratioP2
65397;SDS011;52006;45.068;38.952;2022-07-29T00:02:17;10.18;;;5.93;;
65397;SDS011;52006;45.068;38.952;2022-07-29T00:04:43;11.38;;;6.10;;
65397;SDS011;52006;45.068;38.952;2022-07-29T00:07:10;8.15;;;6.40;;
65397;SDS011;52006;45.068;38.952;2022-07-29T00:09:36;9.40;;;6.10;;
65397;SDS011;52006;45.068;38.952;2022-07-29T00:12:02;13.90;;;6.07;;
65397;SDS011;52006;45.068;38.952;2022-07-29T00:14:28;10.02;;;6.68;;
65397;SDS011;52006;45.068;38.952;2022-07-29T00:16:55;10.07;;;6.65;;
65397;SDS011;52006;45.068;38.952;2022-07-29T00:19:21;12.32;;;7.88;;
65397;SDS011;52006;45.068;38.952;2022-07-29T00:21:47;8.32;;;6.38;;
65397;SDS011;52006;45.068;38.952;2022-07-29T00:24:13;10.38;;;6.80;;
65397;SDS011;52006;45.068;38.952;2022-07-29T00:26:39;12.98;;;7.72;;
65397;SDS011;52006;45.068;38.952;2022-07-29T00:29:05;11.18;;;7.13;;
65397;SDS011;52006;45.068;38.952;2022-07-29T00:31:32;14.88;;;8.13;;
65397;SDS011;52006;45.068;38.952;2022-07-29T00:33:58;10.98;;;7.90;;
65397;SDS011;52006;45.068;38.952;2022-07-29T00:36:24;14.75;;;7.32;;
65397;SDS011;52006;45.068;38.952;2022-07-29T00:38:50;12.10;;;8.05;;
65397;SDS011;52006;45.068;38.952;2022-07-29T00:41:17;9.23;;;7.35;;
65397;SDS011;52006;45.068;38.952;2022-07-29T00:43:56;10.07;;;7.22;;
65397;SDS011;52006;45.068;38.952;2022-07-29T00:46:22;13.23;;;6.90;;
65397;SDS011;52006;45.068;38.952;2022-07-29T00:48:48;12.60;;;7.43;;
65397;SDS011;52006;45.068;38.952;2022-07-29T00:51:14;8.70;;;7.07;;
65397;SDS011;52006;45.068;38.952;2022-07-29T00:53:40;9.23;;;7.50;;
65397;SDS011;52006;45.068;38.952;2022-07-29T00:56:07;7.60;;;5.93;;
65397;SDS011;52006;45.068;38.952;2022-07-29T00:58:33;10.18;;;6.82;;
65397;SDS011;52006;45.068;38.952;2022-07-29T01:01:00;15.88;;;7.07;;
65397;SDS011;52006;45.068;38.952;2022-07-29T01:03:26;9.63;;;7.53;;
65397;SDS011;52006;45.068;38.952;2022-07-29T01:05:52;8.38;;;6.65;;
65397;SDS011;52006;45.068;38.952;2022-07-29T01:08:20;12.65;;;7.85;;
65397;SDS011;52006;45.068;38.952;2022-07-29T01:10:46;18.30;;;6.57;;
65397;SDS011;52006;45.068;38.952;2022-07-29T01:13:14;14.07;;;7.25;;
65397;SDS011;52006;45.068;38.952;2022-07-29T01:15:43;9.50;;;6.72;;
65397;SDS011;52006;45.068;38.952;2022-07-29T01:18:16;10.98;;;7.10;;
65397;SDS011;52006;45.068;38.952;2022-07-29T01:23:53;14.35;;;8.07;;
65397;SDS011;52006;45.068;38.952;2022-07-29T01:26:46;16.52;;;8.02;;
65397;SDS011;52006;45.068;38.952;2022-07-29T01:29:18;9.05;;;6.85;;
65397;SDS011;52006;45.068;38.952;2022-07-29T01:31:56;9.60;;;6.97;;
65397;SDS011;52006;45.068;38.952;2022-07-29T01:34:25;13.50;;;6.68;;
65397;SDS011;52006;45.068;38.952;2022-07-29T01:37:06;13.98;;;7.65;;
65397;SDS011;52006;45.068;38.952;2022-07-29T01:39:35;8.75;;;6.60;;
65397;SDS011;52006;45.068;38.952;2022-07-29T01:42:06;10.85;;;7.10;;
65397;SDS011;52006;45.068;38.952;2022-07-29T01:45:17;11.68;;;7.90;;
65397;SDS011;52006;45.068;38.952;2022-07-29T01:47:33;10.27;;;7.40;;
65397;SDS011;52006;45.068;38.952;2022-07-29T01:50:05;10.95;;;7.75;;
65397;SDS011;52006;45.068;38.952;2022-07-29T01:52:42;18.45;;;7.28;;
65397;SDS011;52006;45.068;38.952;2022-07-29T01:55:15;11.68;;;7.55;;
65397;SDS011;52006;45.068;38.952;2022-07-29T01:57:44;12.90;;;8.20;;
65397;SDS011;52006;45.068;38.952;2022-07-29T02:00:13;14.20;;;7.75;;
65397;SDS011;52006;45.068;38.952;2022-07-29T02:02:41;12.52;;;8.02;;
65397;SDS011;52006;45.068;38.952;2022-07-29T02:05:11;16.33;;;8.13;;
65397;SDS011;52006;45.068;38.952;2022-07-29T02:07:40;10.15;;;7.95;;
65397;SDS011;52006;45.068;38.952;2022-07-29T02:10:09;11.75;;;7.70;;
65397;SDS011;52006;45.068;38.952;2022-07-29T02:12:37;10.57;;;8.10;;
65397;SDS011;52006;45.068;38.952;2022-07-29T02:15:06;12.15;;;8.27;;
65397;SDS011;52006;45.068;38.952;2022-07-29T02:17:35;20.38;;;8.52;;
65397;SDS011;52006;45.068;38.952;2022-07-29T02:20:14;19.60;;;8.10;;
65397;SDS011;52006;45.068;38.952;2022-07-29T02:22:41;16.55;;;7.72;;
65397;SDS011;52006;45.068;38.952;2022-07-29T02:25:10;16.92;;;7.90;;
65397;SDS011;52006;45.068;38.952;2022-07-29T02:27:37;16.33;;;7.97;;
65397;SDS011;52006;45.068;38.952;2022-07-29T02:30:05;11.38;;;6.95;;
65397;SDS011;52006;45.068;38.952;2022-07-29T02:32:34;24.58;;;7.65;;
65397;SDS011;52006;45.068;38.952;2022-07-29T02:35:02;24.92;;;7.60;;
65397;SDS011;52006;45.068;38.952;2022-07-29T02:37:29;15.48;;;7.13;;
65397;SDS011;52006;45.068;38.952;2022-07-29T02:39:57;14.52;;;7.40;;
65397;SDS011;52006;45.068;38.952;2022-07-29T02:42:24;14.18;;;7.57;;
65397;SDS011;52006;45.068;38.952;2022-07-29T02:44:53;13.18;;;7.35;;
65397;SDS011;52006;45.068;38.952;2022-07-29T02:48:02;20.45;;;7.68;;
65397;SDS011;52006;45.068;38.952;2022-07-29T02:55:24;11.48;;;7.35;;
65397;SDS011;52006;45.068;38.952;2022-07-29T03:00:30;18.33;;;7.47;;
65397;SDS011;52006;45.068;38.952;2022-07-29T03:03:00;17.25;;;7.18;;
65397;SDS011;52006;45.068;38.952;2022-07-29T03:05:30;15.60;;;7.82;;
65397;SDS011;52006;45.068;38.952;2022-07-29T03:07:58;16.70;;;7.75;;
65397;SDS011;52006;45.068;38.952;2022-07-29T03:10:37;21.90;;;8.65;;
65397;SDS011;52006;45.068;38.952;2022-07-29T03:13:05;14.18;;;7.95;;
65397;SDS011;52006;45.068;38.952;2022-07-29T03:15:33;15.98;;;8.63;;
65397;SDS011;52006;45.068;38.952;2022-07-29T03:17:59;20.08;;;9.32;;
65397;SDS011;52006;45.068;38.952;2022-07-29T03:20:26;15.38;;;8.57;;
65397;SDS011;52006;45.068;38.952;2022-07-29T03:22:53;22.48;;;8.95;;
65397;SDS011;52006;45.068;38.952;2022-07-29T03:25:19;12.98;;;8.15;;
65397;SDS011;52006;45.068;38.952;2022-07-29T03:27:47;15.27;;;9.25;;
65397;SDS011;52006;45.068;38.952;2022-07-29T03:30:14;15.88;;;9.02;;
65397;SDS011;52006;45.068;38.952;2022-07-29T03:32:41;16.45;;;10.30;;
65397;SDS011;52006;45.068;38.952;2022-07-29T03:35:07;18.75;;;10.55;;
65397;SDS011;52006;45.068;38.952;2022-07-29T03:37:34;17.30;;;9.45;;
65397;SDS011;52006;45.068;38.952;2022-07-29T03:40:05;14.85;;;9.75;;
65397;SDS011;52006;45.068;38.952;2022-07-29T03:42:49;16.08;;;9.40;;
65397;SDS011;52006;45.068;38.952;2022-07-29T03:45:21;19.70;;;9.30;;
65397;SDS011;52006;45.068;38.952;2022-07-29T03:47:51;15.38;;;9.60;;
65397;SDS011;52006;45.068;38.952;2022-07-29T03:50:28;22.25;;;9.70;;
65397;SDS011;52006;45.068;38.952;2022-07-29T03:52:58;17.02;;;9.77;;
65397;SDS011;52006;45.068;38.952;2022-07-29T03:55:28;15.50;;;10.15;;
65397;SDS011;52006;45.068;38.952;2022-07-29T04:01:03;23.52;;;10.38;;
65397;SDS011;52006;45.068;38.952;2022-07-29T04:19:43;20.93;;;9.17;;
65397;SDS011;52006;45.068;38.952;2022-07-29T04:22:45;26.13;;;9.57;;
65397;SDS011;52006;45.068;38.952;2022-07-29T04:25:11;26.30;;;9.38;;
65397;SDS011;52006;45.068;38.952;2022-07-29T04:27:38;26.58;;;8.55;;
65397;SDS011;52006;45.068;38.952;2022-07-29T04:30:27;28.83;;;9.15;;
65397;SDS011;52006;45.068;38.952;2022-07-29T04:32:54;30.17;;;9.38;;
65397;SDS011;52006;45.068;38.952;2022-07-29T04:35:28;18.75;;;8.93;;
65397;SDS011;52006;45.068;38.952;2022-07-29T04:37:57;23.77;;;8.20;;
65397;SDS011;52006;45.068;38.952;2022-07-29T04:40:26;18.65;;;8.32;;
65397;SDS011;52006;45.068;38.952;2022-07-29T04:48:12;42.00;;;8.70;;
65397;SDS011;52006;45.068;38.952;2022-07-29T04:50:38;16.75;;;8.05;;
65397;SDS011;52006;45.068;38.952;2022-07-29T04:53:06;17.42;;;7.95;;
65397;SDS011;52006;45.068;38.952;2022-07-29T04:55:33;15.68;;;8.05;;
65397;SDS011;52006;45.068;38.952;2022-07-29T04:58:00;14.88;;;8.63;;
65397;SDS011;52006;45.068;38.952;2022-07-29T05:00:27;15.38;;;7.32;;
65397;SDS011;52006;45.068;38.952;2022-07-29T05:02:55;18.67;;;7.75;;
65397;SDS011;52006;45.068;38.952;2022-07-29T05:05:29;14.27;;;6.97;;
65397;SDS011;52006;45.068;38.952;2022-07-29T05:10:28;11.07;;;5.00;;
65397;SDS011;52006;45.068;38.952;2022-07-29T05:12:57;13.57;;;5.72;;
65397;SDS011;52006;45.068;38.952;2022-07-29T05:15:24;19.77;;;6.15;;
65397;SDS011;52006;45.068;38.952;2022-07-29T05:17:55;12.90;;;5.35;;
65397;SDS011;52006;45.068;38.952;2022-07-29T05:20:22;9.15;;;5.18;;
65397;SDS011;52006;45.068;38.952;2022-07-29T05:22:57;11.95;;;5.45;;
65397;SDS011;52006;45.068;38.952;2022-07-29T05:28:38;9.68;;;5.20;;
65397;SDS011;52006;45.068;38.952;2022-07-29T05:31:07;9.70;;;4.78;;
65397;SDS011;52006;45.068;38.952;2022-07-29T05:39:07;18.90;;;5.47;;
65397;SDS011;52006;45.068;38.952;2022-07-29T05:44:47;22.17;;;5.70;;
65397;SDS011;52006;45.068;38.952;2022-07-29T05:47:15;11.77;;;5.50;;
65397;SDS011;52006;45.068;38.952;2022-07-29T06:17:03;15.15;;;5.40;;
65397;SDS011;52006;45.068;38.952;2022-07-29T06:19:35;15.55;;;5.43;;
65397;SDS011;52006;45.068;38.952;2022-07-29T06:22:02;12.52;;;6.22;;
65397;SDS011;52006;45.068;38.952;2022-07-29T06:24:35;15.30;;;6.20;;
65397;SDS011;52006;45.068;38.952;2022-07-29T06:27:07;14.38;;;5.90;;
65397;SDS011;52006;45.068;38.952;2022-07-29T06:29:37;14.77;;;5.57;;
65397;SDS011;52006;45.068;38.952;2022-07-29T06:32:03;10.73;;;6.28;;
65397;SDS011;52006;45.068;38.952;2022-07-29T06:37:08;11.13;;;5.18;;
65397;SDS011;52006;45.068;38.952;2022-07-29T06:39:35;14.73;;;5.00;;
65397;SDS011;52006;45.068;38.952;2022-07-29T06:42:05;16.23;;;5.22;;
65397;SDS011;52006;45.068;38.952;2022-07-29T06:44:33;10.63;;;4.90;;
65397;SDS011;52006;45.068;38.952;2022-07-29T06:47:06;14.07;;;4.75;;
65397;SDS011;52006;45.068;38.952;2022-07-29T06:52:16;7.57;;;4.00;;
65397;SDS011;52006;45.068;38.952;2022-07-29T06:54:43;7.75;;;4.55;;
65397;SDS011;52006;45.068;38.952;2022-07-29T07:00:13;11.68;;;4.88;;
65397;SDS011;52006;45.068;38.952;2022-07-29T07:02:40;19.83;;;5.60;;
65397;SDS011;52006;45.068;38.952;2022-07-29T07:05:12;17.02;;;5.22;;
65397;SDS011;52006;45.068;38.952;2022-07-29T07:18:13;11.57;;;4.70;;
65397;SDS011;52006;45.068;38.952;2022-07-29T07:23:25;7.68;;;4.10;;
65397;SDS011;52006;45.068;38.952;2022-07-29T08:23:35;5.63;;;3.75;;
65397;SDS011;52006;45.068;38.952;2022-07-29T08:26:07;8.80;;;3.25;;
65397;SDS011;52006;45.068;38.952;2022-07-29T08:40:32;9.93;;;3.40;;
65397;SDS011;52006;45.068;38.952;2022-07-29T08:43:07;6.82;;;3.35;;
65397;SDS011;52006;45.068;38.952;2022-07-29T08:48:56;7.03;;;3.90;;
65397;SDS011;52006;45.068;38.952;2022-07-29T08:51:25;8.02;;;3.42;;
65397;SDS011;52006;45.068;38.952;2022-07-29T08:53:58;8.73;;;2.38;;
65397;SDS011;52006;45.068;38.952;2022-07-29T10:12:09;9.00;;;3.00;;
65397;SDS011;52006;45.068;38.952;2022-07-29T10:14:44;4.13;;;2.33;;
65397;SDS011;52006;45.068;38.952;2022-07-29T10:23:31;7.45;;;3.00;;
65397;SDS011;52006;45.068;38.952;2022-07-29T10:44:13;2.67;;;2.40;;
65397;SDS011;52006;45.068;38.952;2022-07-29T10:50:00;1.67;;;1.58;;
65397;SDS011;52006;45.068;38.952;2022-07-29T10:52:58;3.25;;;2.30;;
65397;SDS011;52006;45.068;38.952;2022-07-29T11:27:14;5.55;;;3.63;;
65397;SDS011;52006;45.068;38.952;2022-07-29T11:29:58;7.68;;;3.40;;
65397;SDS011;52006;45.068;38.952;2022-07-29T11:32:50;4.00;;;3.13;;
65397;SDS011;52006;45.068;38.952;2022-07-29T11:35:23;7.63;;;2.75;;
65397;SDS011;52006;45.068;38.952;2022-07-29T11:41:23;8.60;;;3.78;;
65397;SDS011;52006;45.068;38.952;2022-07-29T11:43:53;5.93;;;2.88;;
65397;SDS011;52006;45.068;38.952;2022-07-29T11:52:13;4.45;;;2.78;;
65397;SDS011;52006;45.068;38.952;2022-07-29T11:55:04;13.55;;;3.72;;
65397;SDS011;52006;45.068;38.952;2022-07-29T11:57:32;3.90;;;2.80;;
65397;SDS011;52006;45.068;38.952;2022-07-29T12:00:03;4.50;;;3.00;;
65397;SDS011;52006;45.068;38.952;2022-07-29T12:02:40;7.38;;;3.60;;
65397;SDS011;52006;45.068;38.952;2022-07-29T12:05:10;9.90;;;3.20;;
65397;SDS011;52006;45.068;38.952;2022-07-29T12:07:37;14.35;;;3.72;;
65397;SDS011;52006;45.068;38.952;2022-07-29T12:10:05;7.45;;;3.15;;
65397;SDS011;52006;45.068;38.952;2022-07-29T12:12:33;5.25;;;2.80;;
65397;SDS011;52006;45.068;38.952;2022-07-29T12:15:15;4.28;;;3.17;;
65397;SDS011;52006;45.068;38.952;2022-07-29T12:17:45;3.88;;;3.08;;
65397;SDS011;52006;45.068;38.952;2022-07-29T12:20:21;4.65;;;3.10;;
65397;SDS011;52006;45.068;38.952;2022-07-29T12:22:54;5.28;;;3.15;;
65397;SDS011;52006;45.068;38.952;2022-07-29T12:25:22;9.13;;;3.25;;
65397;SDS011;52006;45.068;38.952;2022-07-29T12:28:04;7.40;;;3.15;;
65397;SDS011;52006;45.068;38.952;2022-07-29T12:30:36;9.63;;;3.25;;
65397;SDS011;52006;45.068;38.952;2022-07-29T12:36:03;8.70;;;3.38;;
65397;SDS011;52006;45.068;38.952;2022-07-29T12:38:31;5.35;;;3.20;;
65397;SDS011;52006;45.068;38.952;2022-07-29T12:41:04;5.90;;;3.10;;
65397;SDS011;52006;45.068;38.952;2022-07-29T12:48:44;5.00;;;3.28;;
65397;SDS011;52006;45.068;38.952;2022-07-29T12:51:17;14.00;;;3.40;;
65397;SDS011;52006;45.068;38.952;2022-07-29T12:54:06;7.90;;;3.17;;
65397;SDS011;52006;45.068;38.952;2022-07-29T12:56:59;14.00;;;3.22;;
65397;SDS011;52006;45.068;38.952;2022-07-29T12:59:27;5.03;;;3.40;;
65397;SDS011;52006;45.068;38.952;2022-07-29T13:01:55;6.45;;;2.95;;
65397;SDS011;52006;45.068;38.952;2022-07-29T13:04:29;9.95;;;3.22;;
65397;SDS011;52006;45.068;38.952;2022-07-29T13:09:37;10.10;;;3.22;;
65397;SDS011;52006;45.068;38.952;2022-07-29T13:13:02;3.85;;;2.92;;
65397;SDS011;52006;45.068;38.952;2022-07-29T13:19:05;5.95;;;2.75;;
65397;SDS011;52006;45.068;38.952;2022-07-29T13:21:38;2.95;;;1.48;;
65397;SDS011;52006;45.068;38.952;2022-07-29T13:24:05;8.25;;;3.10;;
65397;SDS011;52006;45.068;38.952;2022-07-29T13:43:21;9.38;;;3.28;;
65397;SDS011;52006;45.068;38.952;2022-07-29T13:45:48;5.78;;;2.70;;
65397;SDS011;52006;45.068;38.952;2022-07-29T13:56:42;8.23;;;2.97;;
65397;SDS011;52006;45.068;38.952;2022-07-29T14:05:44;6.32;;;2.80;;
65397;SDS011;52006;45.068;38.952;2022-07-29T14:08:21;8.73;;;2.50;;
65397;SDS011;52006;45.068;38.952;2022-07-29T14:11:26;7.78;;;2.50;;
65397;SDS011;52006;45.068;38.952;2022-07-29T14:13:56;6.65;;;2.20;;
65397;SDS011;52006;45.068;38.952;2022-07-29T14:16:26;7.72;;;2.40;;
65397;SDS011;52006;45.068;38.952;2022-07-29T14:18:55;5.85;;;2.38;;
65397;SDS011;52006;45.068;38.952;2022-07-29T14:21:26;5.13;;;2.60;;
65397;SDS011;52006;45.068;38.952;2022-07-29T14:23:55;8.48;;;2.90;;
65397;SDS011;52006;45.068;38.952;2022-07-29T14:28:56;3.72;;;2.38;;
65397;SDS011;52006;45.068;38.952;2022-07-29T14:31:24;2.67;;;2.40;;
65397;SDS011;52006;45.068;38.952;2022-07-29T14:33:53;5.18;;;3.08;;
65397;SDS011;52006;45.068;38.952;2022-07-29T14:36:20;4.00;;;2.65;;
65397;SDS011;52006;45.068;38.952;2022-07-29T14:44:51;11.20;;;2.80;;
65397;SDS011;52006;45.068;38.952;2022-07-29T14:50:03;7.70;;;2.25;;
65397;SDS011;52006;45.068;38.952;2022-07-29T14:52:36;5.97;;;2.30;;
65397;SDS011;52006;45.068;38.952;2022-07-29T14:55:07;7.38;;;2.60;;
65397;SDS011;52006;45.068;38.952;2022-07-29T15:07:08;7.55;;;2.42;;
65397;SDS011;52006;45.068;38.952;2022-07-29T15:16:35;5.22;;;1.70;;
65397;SDS011;52006;45.068;38.952;2022-07-29T15:24:40;10.65;;;2.60;;
65397;SDS011;52006;45.068;38.952;2022-07-29T15:27:07;10.55;;;2.83;;
65397;SDS011;52006;45.068;38.952;2022-07-29T15:29:41;2.47;;;2.22;;
65397;SDS011;52006;45.068;38.952;2022-07-29T15:41:20;4.90;;;2.35;;
65397;SDS011;52006;45.068;38.952;2022-07-29T15:47:31;3.85;;;2.33;;
65397;SDS011;52006;45.068;38.952;2022-07-29T16:02:28;13.70;;;3.78;;
65397;SDS011;52006;45.068;38.952;2022-07-29T16:08:03;3.17;;;2.53;;
65397;SDS011;52006;45.068;38.952;2022-07-29T16:10:54;4.88;;;2.75;;
65397;SDS011;52006;45.068;38.952;2022-07-29T16:14:16;3.95;;;2.33;;
65397;SDS011;52006;45.068;38.952;2022-07-29T16:16:43;6.57;;;2.80;;
65397;SDS011;52006;45.068;38.952;2022-07-29T16:19:10;8.48;;;2.40;;
65397;SDS011;52006;45.068;38.952;2022-07-29T16:21:43;13.80;;;2.88;;
65397;SDS011;52006;45.068;38.952;2022-07-29T16:24:14;8.80;;;2.60;;
65397;SDS011;52006;45.068;38.952;2022-07-29T16:26:44;6.03;;;2.70;;
65397;SDS011;52006;45.068;38.952;2022-07-29T16:29:17;5.78;;;2.40;;
65397;SDS011;52006;45.068;38.952;2022-07-29T16:51:45;13.80;;;3.17;;
65397;SDS011;52006;45.068;38.952;2022-07-29T17:01:06;4.78;;;2.72;;
65397;SDS011;52006;45.068;38.952;2022-07-29T17:06:50;7.32;;;3.15;;
65397;SDS011;52006;45.068;38.952;2022-07-29T17:09:23;6.60;;;2.90;;
65397;SDS011;52006;45.068;38.952;2022-07-29T17:17:47;11.02;;;2.70;;
65397;SDS011;52006;45.068;38.952;2022-07-29T19:52:36;15.60;;;7.95;;
65397;SDS011;52006;45.068;38.952;2022-07-29T19:55:41;15.57;;;8.20;;
65397;SDS011;52006;45.068;38.952;2022-07-29T19:58:51;17.42;;;7.18;;
65397;SDS011;52006;45.068;38.952;2022-07-29T20:04:39;14.48;;;7.13;;
65397;SDS011;52006;45.068;38.952;2022-07-29T20:10:17;19.85;;;8.20;;
65397;SDS011;52006;45.068;38.952;2022-07-29T20:27:27;15.57;;;8.93;;
65397;SDS011;52006;45.068;38.952;2022-07-29T20:33:25;16.23;;;9.37;;
65397;SDS011;52006;45.068;38.952;2022-07-29T20:36:35;23.40;;;9.88;;
65397;SDS011;52006;45.068;38.952;2022-07-29T20:45:13;17.60;;;8.97;;
65397;SDS011;52006;45.068;38.952;2022-07-29T20:49:21;14.82;;;8.45;;
65397;SDS011;52006;45.068;38.952;2022-07-29T20:51:56;15.05;;;7.50;;
65397;SDS011;52006;45.068;38.952;2022-07-29T20:55:03;15.30;;;7.75;;
65397;SDS011;52006;45.068;38.952;2022-07-29T20:57:30;12.43;;;6.85;;
65397;SDS011;52006;45.068;38.952;2022-07-29T20:59:58;14.00;;;6.53;;
65397;SDS011;52006;45.068;38.952;2022-07-29T21:02:25;10.85;;;7.63;;
65397;SDS011;52006;45.068;38.952;2022-07-29T21:04:56;16.58;;;6.93;;
65397;SDS011;52006;45.068;38.952;2022-07-29T21:07:36;10.90;;;6.30;;
65397;SDS011;52006;45.068;38.952;2022-07-29T21:14:08;14.82;;;6.55;;
65397;SDS011;52006;45.068;38.952;2022-07-29T21:16:46;9.00;;;6.28;;
65397;SDS011;52006;45.068;38.952;2022-07-29T21:19:15;9.57;;;6.78;;
65397;SDS011;52006;45.068;38.952;2022-07-29T21:21:46;12.40;;;6.68;;
65397;SDS011;52006;45.068;38.952;2022-07-29T21:27:03;10.98;;;7.10;;
65397;SDS011;52006;45.068;38.952;2022-07-29T21:29:56;18.02;;;6.80;;
65397;SDS011;52006;45.068;38.952;2022-07-29T21:32:26;12.52;;;6.55;;
65397;SDS011;52006;45.068;38.952;2022-07-29T21:34:53;10.77;;;6.55;;
65397;SDS011;52006;45.068;38.952;2022-07-29T21:37:22;10.27;;;6.28;;
65397;SDS011;52006;45.068;38.952;2022-07-29T21:39:50;13.25;;;6.93;;
65397;SDS011;52006;45.068;38.952;2022-07-29T21:42:17;8.20;;;6.25;;
65397;SDS011;52006;45.068;38.952;2022-07-29T21:44:44;12.82;;;6.57;;
65397;SDS011;52006;45.068;38.952;2022-07-29T21:47:11;13.45;;;6.13;;
65397;SDS011;52006;45.068;38.952;2022-07-29T21:52:26;8.65;;;6.38;;
65397;SDS011;52006;45.068;38.952;2022-07-29T21:58:18;11.40;;;6.43;;
65397;SDS011;52006;45.068;38.952;2022-07-29T22:00:48;11.70;;;6.40;;
65397;SDS011;52006;45.068;38.952;2022-07-29T22:06:06;10.18;;;6.57;;
65397;SDS011;52006;45.068;38.952;2022-07-29T22:08:45;10.07;;;6.72;;
65397;SDS011;52006;45.068;38.952;2022-07-29T22:14:44;6.57;;;5.90;;
65397;SDS011;52006;45.068;38.952;2022-07-29T22:17:13;9.90;;;6.47;;
65397;SDS011;52006;45.068;38.952;2022-07-29T22:19:42;7.65;;;6.53;;
65397;SDS011;52006;45.068;38.952;2022-07-29T22:25:38;15.73;;;7.18;;
65397;SDS011;52006;45.068;38.952;2022-07-29T22:28:07;11.20;;;6.47;;
65397;SDS011;52006;45.068;38.952;2022-07-29T22:30:34;12.20;;;7.03;;
65397;SDS011;52006;45.068;38.952;2022-07-29T22:33:11;13.25;;;7.47;;
65397;SDS011;52006;45.068;38.952;2022-07-29T22:35:41;10.23;;;6.78;;
65397;SDS011;52006;45.068;38.952;2022-07-29T22:38:09;10.68;;;6.25;;
65397;SDS011;52006;45.068;38.952;2022-07-29T22:43:14;13.70;;;6.65;;
65397;SDS011;52006;45.068;38.952;2022-07-29T22:45:41;10.05;;;6.10;;
65397;SDS011;52006;45.068;38.952;2022-07-29T22:48:08;14.07;;;6.85;;
65397;SDS011;52006;45.068;38.952;2022-07-29T22:50:35;12.80;;;6.53;;
65397;SDS011;52006;45.068;38.952;2022-07-29T22:53:02;15.13;;;7.05;;
65397;SDS011;52006;45.068;38.952;2022-07-29T22:55:29;9.45;;;6.70;;
65397;SDS011;52006;45.068;38.952;2022-07-29T22:57:56;10.90;;;7.03;;
65397;SDS011;52006;45.068;38.952;2022-07-29T23:00:23;10.18;;;6.25;;
65397;SDS011;52006;45.068;38.952;2022-07-29T23:02:50;12.88;;;7.40;;
65397;SDS011;52006;45.068;38.952;2022-07-29T23:05:17;10.73;;;7.22;;
65397;SDS011;52006;45.068;38.952;2022-07-29T23:07:44;12.48;;;7.05;;
65397;SDS011;52006;45.068;38.952;2022-07-29T23:10:11;12.50;;;6.80;;
65397;SDS011;52006;45.068;38.952;2022-07-29T23:12:37;12.77;;;6.47;;
65397;SDS011;52006;45.068;38.952;2022-07-29T23:15:04;8.38;;;6.30;;
65397;SDS011;52006;45.068;38.952;2022-07-29T23:17:32;10.48;;;6.72;;
65397;SDS011;52006;45.068;38.952;2022-07-29T23:20:00;9.13;;;6.72;;
65397;SDS011;52006;45.068;38.952;2022-07-29T23:25:16;8.63;;;6.68;;
65397;SDS011;52006;45.068;38.952;2022-07-29T23:27:44;5.45;;;4.20;;
65397;SDS011;52006;45.068;38.952;2022-07-29T23:30:15;10.38;;;6.25;;
65397;SDS011;52006;45.068;38.952;2022-07-29T23:32:42;12.57;;;5.85;;
65397;SDS011;52006;45.068;38.952;2022-07-29T23:35:09;8.80;;;6.57;;
65397;SDS011;52006;45.068;38.952;2022-07-29T23:37:41;11.68;;;6.20;;
65397;SDS011;52006;45.068;38.952;2022-07-29T23:40:09;9.68;;;6.38;;
65397;SDS011;52006;45.068;38.952;2022-07-29T23:42:41;9.50;;;5.20;;
65397;SDS011;52006;45.068;38.952;2022-07-29T23:45:08;13.55;;;7.18;;
65397;SDS011;52006;45.068;38.952;2022-07-29T23:47:38;8.20;;;6.60;;
65397;SDS011;52006;45.068;38.952;2022-07-29T23:50:28;8.82;;;6.53;;
65397;SDS011;52006;45.068;38.952;2022-07-29T23:52:55;12.98;;;5.95;;
65397;SDS011;52006;45.068;38.952;2022-07-29T23:57:53;10.23;;;6.55;;
